createdAt,value
2019-01-27T00:01:33.971Z,7.88
2019-01-27T00:04:05.310Z,7.83
2019-01-27T00:06:36.800Z,7.82
2019-01-27T00:09:11.936Z,7.92
2019-01-27T00:11:43.208Z,7.87
2019-01-27T00:14:15.440Z,7.87
2019-01-27T00:16:46.904Z,7.80
2019-01-27T00:19:18.130Z,7.89
2019-01-27T00:21:49.337Z,7.93
2019-01-27T00:24:20.348Z,7.87
2019-01-27T00:26:51.339Z,7.93
2019-01-27T00:29:22.796Z,7.83
2019-01-27T00:31:53.854Z,7.87
2019-01-27T00:34:25.093Z,7.90
2019-01-27T00:36:57.395Z,7.91
2019-01-27T00:39:28.360Z,7.77
2019-01-27T00:41:59.952Z,7.79
2019-01-27T00:44:31.219Z,7.89
2019-01-27T00:47:02.678Z,7.89
2019-01-27T00:49:34.210Z,7.77
2019-01-27T00:52:06.173Z,7.76
2019-01-27T00:54:37.378Z,7.62
2019-01-27T00:57:08.517Z,7.69
2019-01-27T00:59:39.803Z,7.77
2019-01-27T01:02:11.404Z,7.83
2019-01-27T01:04:42.387Z,8.14
2019-01-27T01:07:13.509Z,7.85
2019-01-27T01:09:45.403Z,7.76
2019-01-27T01:12:16.733Z,7.92
2019-01-27T01:14:48.021Z,7.80
2019-01-27T01:17:19.662Z,7.81
2019-01-27T01:19:50.733Z,7.69
2019-01-27T01:22:21.706Z,7.73
2019-01-27T01:24:53.288Z,7.65
2019-01-27T01:27:24.532Z,7.47
2019-01-27T01:29:56.778Z,7.62
2019-01-27T01:32:27.746Z,7.85
2019-01-27T01:34:58.704Z,7.80
2019-01-27T01:37:29.929Z,7.65
2019-01-27T01:40:01.034Z,7.59
2019-01-27T01:42:32.329Z,7.64
2019-01-27T01:45:03.476Z,7.63
2019-01-27T01:47:34.521Z,7.72
2019-01-27T01:50:07.258Z,7.63
2019-01-27T01:52:38.258Z,7.64
2019-01-27T01:55:10.384Z,7.68
2019-01-27T01:57:41.497Z,7.83
2019-01-27T02:00:16.679Z,7.91
2019-01-27T02:02:48.127Z,7.81
2019-01-27T02:05:21.417Z,7.74
2019-01-27T02:07:53.042Z,7.85
2019-01-27T02:10:25.039Z,7.92
2019-01-27T02:12:57.359Z,7.96
2019-01-27T02:15:59.478Z,7.98
2019-01-27T02:18:31.339Z,7.94
2019-01-27T02:21:02.805Z,7.93
2019-01-27T02:23:35.156Z,7.97
2019-01-27T02:26:07.459Z,8.03
2019-01-27T02:28:39.086Z,7.98
2019-01-27T02:31:10.199Z,7.95
2019-01-27T02:33:41.658Z,7.98
2019-01-27T02:36:12.936Z,7.95
2019-01-27T02:38:44.177Z,7.94
2019-01-27T02:41:15.411Z,8.18
2019-01-27T02:43:46.714Z,8.12
2019-01-27T02:46:17.845Z,8.03
2019-01-27T02:48:49.185Z,8.01
2019-01-27T02:51:20.512Z,8.09
2019-01-27T02:53:52.563Z,8.14
2019-01-27T02:56:23.543Z,8.11
2019-01-27T02:58:54.865Z,8.21
2019-01-27T03:01:27.510Z,8.16
2019-01-27T03:03:58.669Z,8.24
2019-01-27T03:06:36.189Z,8.37
2019-01-27T03:09:13.815Z,8.34
2019-01-27T03:11:48.450Z,8.27
2019-01-27T03:14:21.401Z,8.33
2019-01-27T03:16:54.062Z,8.22
2019-01-27T03:19:25.102Z,8.20
2019-01-27T03:21:57.590Z,8.08
2019-01-27T03:24:28.549Z,8.30
2019-01-27T03:26:59.801Z,8.30
2019-01-27T03:29:31.214Z,8.36
2019-01-27T03:32:02.204Z,8.21
2019-01-27T03:34:33.231Z,8.15
2019-01-27T03:37:04.464Z,8.19
2019-01-27T03:39:35.511Z,8.17
2019-01-27T03:42:07.208Z,8.26
2019-01-27T03:44:38.526Z,8.19
2019-01-27T03:47:09.555Z,8.23
2019-01-27T03:49:40.841Z,8.21
2019-01-27T03:52:11.906Z,8.17
2019-01-27T03:54:42.887Z,8.17
2019-01-27T03:57:13.863Z,8.15
2019-01-27T03:59:45.245Z,8.20
2019-01-27T04:02:16.223Z,8.20
2019-01-27T04:04:47.253Z,8.14
2019-01-27T04:07:19.213Z,8.21
2019-01-27T04:09:50.285Z,8.20
2019-01-27T04:12:21.262Z,8.23
2019-01-27T04:14:52.525Z,8.24
2019-01-27T04:17:23.580Z,8.18
2019-01-27T04:19:54.625Z,8.15
2019-01-27T04:22:25.949Z,8.24
2019-01-27T04:24:57.191Z,8.13
2019-01-27T04:27:28.459Z,8.24
2019-01-27T04:29:59.509Z,8.16
2019-01-27T04:32:30.511Z,8.11
2019-01-27T04:35:01.551Z,8.28
2019-01-27T04:37:32.814Z,8.33
2019-01-27T04:40:04.502Z,8.27
2019-01-27T04:42:35.920Z,8.39
2019-01-27T04:45:09.108Z,8.34
2019-01-27T04:47:40.391Z,8.52
2019-01-27T04:50:13.470Z,8.40
2019-01-27T04:52:44.830Z,8.38
2019-01-27T04:55:16.262Z,8.34
2019-01-27T04:57:47.419Z,8.34
2019-01-27T05:00:21.840Z,8.44
2019-01-27T05:03:05.043Z,8.50
2019-01-27T05:05:36.168Z,8.42
2019-01-27T05:08:07.391Z,8.46
2019-01-27T05:10:38.453Z,8.55
2019-01-27T05:13:09.918Z,8.51
2019-01-27T05:15:41.260Z,8.58
2019-01-27T05:18:12.628Z,8.64
2019-01-27T05:20:44.010Z,8.55
2019-01-27T05:23:15.650Z,8.50
2019-01-27T05:25:46.902Z,8.35
2019-01-27T05:28:17.885Z,8.45
2019-01-27T05:30:49.094Z,8.41
2019-01-27T05:33:20.399Z,8.36
2019-01-27T05:35:51.639Z,8.44
2019-01-27T05:38:23.145Z,8.43
2019-01-27T05:40:54.258Z,8.32
2019-01-27T05:43:25.222Z,8.31
2019-01-27T05:45:57.427Z,8.35
2019-01-27T05:48:28.957Z,8.27
2019-01-27T05:50:59.925Z,8.32
2019-01-27T05:53:30.914Z,8.52
2019-01-27T05:56:01.888Z,8.30
2019-01-27T05:58:33.221Z,8.33
2019-01-27T06:01:04.357Z,8.29
2019-01-27T06:03:35.359Z,8.47
2019-01-27T06:06:06.598Z,8.55
2019-01-27T06:08:37.658Z,8.39
2019-01-27T06:11:08.619Z,8.62
2019-01-27T06:13:39.657Z,8.52
2019-01-27T06:16:10.866Z,8.62
2019-01-27T06:18:42.151Z,8.61
2019-01-27T06:21:13.176Z,8.65
2019-01-27T06:23:44.821Z,8.69
2019-01-27T06:26:16.004Z,8.70
2019-01-27T06:28:47.327Z,8.68
2019-01-27T06:31:18.575Z,8.48
2019-01-27T06:34:02.218Z,8.53
2019-01-27T06:36:33.222Z,8.38
2019-01-27T06:39:07.708Z,8.50
2019-01-27T06:41:38.712Z,8.48
2019-01-27T06:44:09.786Z,8.57
2019-01-27T06:46:40.756Z,8.47
2019-01-27T06:49:11.810Z,8.41
2019-01-27T06:51:42.759Z,8.56
2019-01-27T06:54:14.195Z,8.65
2019-01-27T06:56:45.463Z,8.55
2019-01-27T06:59:26.250Z,8.52
2019-01-27T07:02:03.532Z,8.31
2019-01-27T07:04:38.936Z,8.51
2019-01-27T07:07:16.030Z,8.45
2019-01-27T07:10:06.528Z,8.52
2019-01-27T07:12:45.642Z,8.59
2019-01-27T07:15:51.137Z,8.58
2019-01-27T07:18:31.981Z,8.46
2019-01-27T07:21:13.204Z,8.36
2019-01-27T07:23:56.546Z,8.39
2019-01-27T07:26:58.453Z,8.46
2019-01-27T07:29:46.450Z,8.43
2019-01-27T07:32:36.669Z,8.58
2019-01-27T07:35:27.456Z,8.66
2019-01-27T07:38:20.391Z,8.79
2019-01-27T07:41:13.400Z,8.65
2019-01-27T07:43:54.457Z,8.78
2019-01-27T07:46:35.141Z,8.75
2019-01-27T07:49:37.452Z,8.80
2019-01-27T07:52:29.791Z,8.87
2019-01-27T07:55:35.184Z,8.77
2019-01-27T07:58:29.116Z,8.76
2019-01-27T08:01:09.425Z,8.82
2019-01-27T08:03:52.064Z,9.06
2019-01-27T08:06:48.299Z,9.07
2019-01-27T08:09:32.367Z,9.17
2019-01-27T08:12:15.454Z,9.17
2019-01-27T08:14:54.938Z,9.18
2019-01-27T08:17:47.933Z,9.23
2019-01-27T08:20:28.476Z,9.44
2019-01-27T08:23:08.158Z,9.24
2019-01-27T08:25:52.772Z,9.14
2019-01-27T08:28:34.466Z,9.22
2019-01-27T08:31:21.560Z,9.44
2019-01-27T08:34:11.138Z,9.58
2019-01-27T08:37:14.715Z,9.65
2019-01-27T08:40:04.754Z,9.52
2019-01-27T08:42:53.565Z,9.44
2019-01-27T08:45:55.703Z,9.55
2019-01-27T08:48:28.023Z,9.55
2019-01-27T08:50:59.368Z,9.55
2019-01-27T08:53:30.700Z,9.59
2019-01-27T08:56:02.006Z,9.67
2019-01-27T08:58:33.207Z,9.77
2019-01-27T09:01:25.554Z,9.76
2019-01-27T09:04:10.301Z,9.83
2019-01-27T09:07:02.780Z,10.00
2019-01-27T09:09:56.033Z,9.91
2019-01-27T09:13:11.164Z,9.83
2019-01-27T09:15:46.433Z,9.89
2019-01-27T09:18:51.414Z,9.94
2019-01-27T09:22:47.744Z,10.19
2019-01-27T09:25:22.027Z,10.13
2019-01-27T09:28:05.594Z,10.00
2019-01-27T09:30:45.494Z,10.08
2019-01-27T09:33:41.355Z,10.19
2019-01-27T09:36:24.363Z,10.07
2019-01-27T09:39:17.558Z,10.11
2019-01-27T09:42:13.442Z,10.11
2019-01-27T09:45:03.750Z,10.26
2019-01-27T09:47:59.756Z,10.26
2019-01-27T09:50:53.904Z,10.44
2019-01-27T09:53:40.288Z,10.58
2019-01-27T09:56:28.697Z,10.66
2019-01-27T09:59:17.628Z,10.73
2019-01-27T10:01:58.154Z,10.52
2019-01-27T10:04:40.643Z,10.54
2019-01-27T10:07:33.488Z,10.39
2019-01-27T10:10:27.718Z,10.63
2019-01-27T10:13:24.106Z,10.66
2019-01-27T10:16:17.186Z,10.71
2019-01-27T10:19:10.847Z,10.78
2019-01-27T10:21:59.874Z,10.84
2019-01-27T10:24:40.572Z,10.86
2019-01-27T10:27:20.558Z,10.81
2019-01-27T10:30:16.229Z,10.66
2019-01-27T10:33:05.066Z,10.51
2019-01-27T10:36:01.061Z,10.50
2019-01-27T10:38:54.953Z,10.68
2019-01-27T10:41:49.984Z,10.59
2019-01-27T10:44:40.674Z,10.42
2019-01-27T10:47:29.705Z,10.41
2019-01-27T10:50:25.368Z,10.55
2019-01-27T10:53:21.037Z,10.50
2019-01-27T10:55:57.725Z,10.42
2019-01-27T10:58:41.551Z,10.47
2019-01-27T11:01:38.605Z,10.50
2019-01-27T11:04:16.871Z,10.38
2019-01-27T11:07:05.574Z,10.36
2019-01-27T11:10:04.880Z,10.43
2019-01-27T11:12:49.784Z,10.60
2019-01-27T11:15:42.519Z,10.56
2019-01-27T11:18:23.067Z,10.53
2019-01-27T11:21:04.617Z,10.56
2019-01-27T11:23:47.805Z,10.68
2019-01-27T11:26:56.404Z,10.62
2019-01-27T11:29:49.212Z,10.57
2019-01-27T11:32:48.424Z,10.61
2019-01-27T11:35:35.879Z,10.64
2019-01-27T11:38:24.585Z,10.77
2019-01-27T11:41:21.101Z,10.82
2019-01-27T11:44:09.978Z,10.81
2019-01-27T11:47:09.252Z,10.82
2019-01-27T11:49:43.861Z,10.87
2019-01-27T11:52:21.510Z,10.86
2019-01-27T11:54:52.943Z,11.08
2019-01-27T11:57:24.336Z,11.10
2019-01-27T11:59:55.328Z,11.07
2019-01-27T12:02:26.431Z,11.11
2019-01-27T12:04:57.673Z,10.95
2019-01-27T12:07:29.004Z,10.82
2019-01-27T12:10:00.191Z,10.87
2019-01-27T12:12:31.371Z,10.83
2019-01-27T12:15:02.382Z,10.68
2019-01-27T12:17:33.426Z,10.78
2019-01-27T12:20:05.440Z,10.81
2019-01-27T12:22:36.514Z,10.73
2019-01-27T12:25:09.858Z,10.40
2019-01-27T12:27:41.098Z,10.43
2019-01-27T12:30:16.342Z,10.53
2019-01-27T12:32:48.096Z,10.59
2019-01-27T12:35:19.201Z,10.39
2019-01-27T12:37:50.878Z,10.57
2019-01-27T12:40:23.439Z,10.55
2019-01-27T12:42:54.802Z,10.68
2019-01-27T12:45:26.150Z,10.76
2019-01-27T12:48:00.400Z,10.83
2019-01-27T12:50:34.569Z,10.83
2019-01-27T12:53:06.424Z,10.94
2019-01-27T12:55:37.521Z,10.82
2019-01-27T12:58:08.743Z,10.65
2019-01-27T13:00:44.857Z,10.68
2019-01-27T13:03:17.087Z,10.62
2019-01-27T13:05:48.665Z,10.59
2019-01-27T13:08:20.537Z,10.65
2019-01-27T13:10:52.541Z,10.64
2019-01-27T13:13:24.670Z,10.64
2019-01-27T13:15:55.889Z,10.53
2019-01-27T13:18:27.018Z,10.19
2019-01-27T13:20:58.649Z,10.33
2019-01-27T13:23:29.795Z,10.46
2019-01-27T13:26:01.039Z,10.23
2019-01-27T13:28:32.353Z,10.31
2019-01-27T13:31:03.633Z,10.32
2019-01-27T13:33:35.123Z,10.34
2019-01-27T13:36:07.211Z,10.48
2019-01-27T13:38:38.399Z,10.49
2019-01-27T13:41:09.453Z,10.38
2019-01-27T13:43:40.499Z,10.39
2019-01-27T13:46:11.546Z,10.41
2019-01-27T13:48:42.815Z,10.51
2019-01-27T13:51:14.250Z,10.30
2019-01-27T13:53:45.609Z,10.27
2019-01-27T13:56:17.211Z,10.31
2019-01-27T13:58:48.742Z,10.34
2019-01-27T14:01:20.127Z,10.31
2019-01-27T14:03:51.226Z,10.39
2019-01-27T14:06:22.605Z,10.31
2019-01-27T14:08:53.698Z,10.35
2019-01-27T14:11:25.577Z,10.57
2019-01-27T14:13:57.259Z,10.66
2019-01-27T14:16:28.572Z,10.56
2019-01-27T14:18:59.645Z,10.66
2019-01-27T14:21:30.801Z,10.75
2019-01-27T14:24:02.023Z,10.75
2019-01-27T14:26:33.063Z,10.68
2019-01-27T14:29:04.359Z,10.69
2019-01-27T14:31:35.386Z,10.76
2019-01-27T14:34:06.905Z,10.57
2019-01-27T14:36:40.952Z,10.57
2019-01-27T14:39:12.081Z,10.55
2019-01-27T14:41:43.300Z,10.59
2019-01-27T14:44:18.052Z,10.51
2019-01-27T14:46:49.038Z,10.61
2019-01-27T14:49:20.392Z,10.51
2019-01-27T14:51:51.674Z,10.44
2019-01-27T14:54:22.926Z,10.57
2019-01-27T14:56:53.984Z,10.55
2019-01-27T14:59:25.403Z,10.59
2019-01-27T15:01:56.502Z,10.55
2019-01-27T15:04:27.822Z,10.65
2019-01-27T15:06:58.795Z,10.47
2019-01-27T15:09:30.144Z,10.45
2019-01-27T15:12:01.277Z,10.41
2019-01-27T15:14:32.340Z,10.31
2019-01-27T15:17:03.362Z,10.46
2019-01-27T15:19:34.643Z,10.57
2019-01-27T15:22:05.884Z,10.28
2019-01-27T15:24:37.127Z,10.33
2019-01-27T15:27:08.258Z,10.24
2019-01-27T15:29:39.609Z,10.21
2019-01-27T15:32:10.630Z,10.18
2019-01-27T15:34:41.660Z,10.26
2019-01-27T15:37:13.433Z,10.23
2019-01-27T15:39:44.625Z,10.25
2019-01-27T15:42:15.898Z,10.27
2019-01-27T15:44:48.499Z,10.17
2019-01-27T15:47:19.550Z,10.32
2019-01-27T15:49:50.688Z,10.23
2019-01-27T15:52:22.131Z,10.28
2019-01-27T15:54:53.582Z,10.24
2019-01-27T15:57:24.986Z,10.27
2019-01-27T15:59:55.962Z,10.26
2019-01-27T16:02:27.122Z,10.32
2019-01-27T16:04:59.119Z,10.32
2019-01-27T16:07:30.950Z,10.10
2019-01-27T16:10:05.240Z,10.27
2019-01-27T16:12:36.538Z,10.22
2019-01-27T16:15:11.237Z,10.07
2019-01-27T16:17:46.770Z,10.02
2019-01-27T16:20:19.219Z,10.03
2019-01-27T16:23:17.262Z,10.11
2019-01-27T16:25:49.399Z,9.98
2019-01-27T16:28:20.552Z,9.82
2019-01-27T16:31:16.553Z,9.90
2019-01-27T16:34:16.998Z,9.77
2019-01-27T16:36:49.247Z,9.57
2019-01-27T16:39:20.369Z,9.72
2019-01-27T16:41:51.378Z,9.70
2019-01-27T16:44:22.475Z,9.48
2019-01-27T16:46:54.237Z,9.38
2019-01-27T16:49:25.661Z,9.56
2019-01-27T16:51:56.928Z,9.41
2019-01-27T16:54:29.145Z,9.30
2019-01-27T16:57:00.181Z,9.22
2019-01-27T16:59:31.155Z,9.40
2019-01-27T17:02:02.302Z,9.40
2019-01-27T17:04:33.701Z,9.52
2019-01-27T17:07:05.554Z,9.36
2019-01-27T17:09:36.654Z,9.45
2019-01-27T17:12:08.249Z,9.47
2019-01-27T17:14:39.503Z,9.34
2019-01-27T17:17:10.482Z,9.46
2019-01-27T17:19:41.575Z,9.37
2019-01-27T17:22:13.670Z,9.35
2019-01-27T17:24:44.643Z,9.24
2019-01-27T17:27:15.661Z,9.18
2019-01-27T17:29:47.010Z,9.17
2019-01-27T17:32:19.229Z,9.04
2019-01-27T17:34:50.266Z,9.01
2019-01-27T17:37:21.273Z,9.18
2019-01-27T17:39:52.229Z,9.14
2019-01-27T17:42:23.354Z,9.08
2019-01-27T17:44:54.364Z,9.04
2019-01-27T17:47:25.437Z,9.15
2019-01-27T17:49:56.362Z,9.18
2019-01-27T17:52:27.613Z,8.98
2019-01-27T17:54:59.327Z,8.90
2019-01-27T17:57:41.401Z,8.93
2019-01-27T18:00:44.142Z,8.98
2019-01-27T18:03:34.659Z,8.92
2019-01-27T18:06:39.915Z,8.92
2019-01-27T18:09:16.309Z,8.92
2019-01-27T18:11:59.626Z,8.85
2019-01-27T18:14:34.650Z,8.91
2019-01-27T18:17:05.743Z,8.81
2019-01-27T18:19:36.785Z,8.87
2019-01-27T18:22:08.206Z,9.00
2019-01-27T18:24:39.435Z,9.00
2019-01-27T18:27:10.535Z,8.97
2019-01-27T18:29:41.667Z,8.91
2019-01-27T18:32:13.308Z,8.92
2019-01-27T18:34:44.949Z,8.80
2019-01-27T18:37:16.364Z,8.88
2019-01-27T18:39:47.402Z,8.75
2019-01-27T18:42:26.884Z,8.75
2019-01-27T18:44:58.572Z,8.78
2019-01-27T18:47:30.817Z,8.81
2019-01-27T18:50:02.020Z,8.78
2019-01-27T18:52:33.515Z,8.78
2019-01-27T18:55:14.610Z,8.88
2019-01-27T18:58:08.145Z,8.89
2019-01-27T19:00:48.095Z,8.75
2019-01-27T19:03:34.493Z,8.88
2019-01-27T19:06:21.470Z,8.85
2019-01-27T19:09:21.852Z,8.79
2019-01-27T19:11:59.744Z,8.70
2019-01-27T19:15:02.280Z,8.81
2019-01-27T19:17:42.445Z,8.81
2019-01-27T19:20:41.232Z,8.86
2019-01-27T19:23:23.202Z,8.62
2019-01-27T19:26:09.234Z,8.70
2019-01-27T19:28:59.186Z,8.72
2019-01-27T19:31:40.914Z,8.79
2019-01-27T19:34:29.706Z,8.72
2019-01-27T19:37:10.791Z,8.77
2019-01-27T19:40:04.227Z,8.78
2019-01-27T19:42:45.647Z,8.62
2019-01-27T19:45:35.870Z,8.64
2019-01-27T19:48:24.842Z,8.45
2019-01-27T19:51:04.112Z,8.23
2019-01-27T19:53:54.369Z,8.24
2019-01-27T19:56:35.712Z,8.19
2019-01-27T19:59:19.445Z,8.18
2019-01-27T20:02:03.524Z,7.88
2019-01-27T20:04:59.317Z,7.65
2019-01-27T20:07:58.799Z,7.60
2019-01-27T20:11:04.386Z,7.68
2019-01-27T20:13:43.771Z,7.55
2019-01-27T20:16:37.921Z,7.54
2019-01-27T20:19:19.126Z,7.35
2019-01-27T20:22:00.953Z,7.42
2019-01-27T20:24:38.946Z,7.12
2019-01-27T20:27:19.613Z,7.35
2019-01-27T20:30:22.276Z,7.38
2019-01-27T20:33:17.914Z,7.30
2019-01-27T20:36:08.448Z,7.25
2019-01-27T20:39:04.703Z,7.29
2019-01-27T20:42:10.831Z,7.46
2019-01-27T20:44:50.264Z,7.31
2019-01-27T20:47:28.656Z,7.25
2019-01-27T20:50:14.178Z,7.06
2019-01-27T20:53:07.374Z,7.08
2019-01-27T20:56:03.672Z,6.95
2019-01-27T20:58:59.809Z,6.85
2019-01-27T21:01:59.006Z,6.85
2019-01-27T21:04:47.585Z,6.88
2019-01-27T21:07:40.917Z,6.87
2019-01-27T21:10:34.630Z,6.70
2019-01-27T21:13:11.894Z,6.44
2019-01-27T21:15:58.559Z,6.82
2019-01-27T21:18:51.558Z,6.75
2019-01-27T21:21:22.747Z,6.25
2019-01-27T21:23:54.426Z,6.33
2019-01-27T21:26:26.363Z,6.11
2019-01-27T21:28:57.419Z,6.31
2019-01-27T21:31:28.466Z,6.22
2019-01-27T21:33:59.975Z,6.00
2019-01-27T21:36:31.001Z,6.18
2019-01-27T21:39:01.975Z,6.02
2019-01-27T21:41:33.840Z,5.84
2019-01-27T21:44:05.120Z,6.00
2019-01-27T21:46:36.659Z,5.96
2019-01-27T21:49:07.623Z,5.90
2019-01-27T21:51:39.263Z,5.96
2019-01-27T21:54:10.640Z,5.88
2019-01-27T21:56:41.661Z,5.92
2019-01-27T21:59:13.294Z,5.97
2019-01-27T22:01:44.614Z,5.87
2019-01-27T22:04:15.955Z,5.69
2019-01-27T22:06:47.239Z,5.74
2019-01-27T22:09:18.801Z,5.77
2019-01-27T22:11:49.790Z,5.93
2019-01-27T22:14:21.919Z,5.96
2019-01-27T22:16:53.245Z,5.88
2019-01-27T22:19:24.418Z,5.98
2019-01-27T22:21:56.002Z,5.80
2019-01-27T22:24:27.002Z,5.63
2019-01-27T22:26:58.003Z,5.79
2019-01-27T22:29:29.628Z,5.78
2019-01-27T22:32:00.630Z,5.56
2019-01-27T22:34:31.845Z,5.52
2019-01-27T22:37:03.451Z,5.81
2019-01-27T22:39:34.457Z,5.72
2019-01-27T22:42:05.767Z,5.84
2019-01-27T22:44:37.644Z,5.76
2019-01-27T22:47:08.650Z,5.90
2019-01-27T22:49:39.602Z,5.87
2019-01-27T22:52:11.331Z,5.86
2019-01-27T22:54:42.349Z,5.89
2019-01-27T22:57:13.362Z,5.82
2019-01-27T22:59:44.981Z,5.96
2019-01-27T23:02:16.527Z,5.86
2019-01-27T23:04:48.351Z,5.86
2019-01-27T23:07:19.350Z,5.97
2019-01-27T23:09:50.728Z,6.01
2019-01-27T23:12:21.741Z,5.95
2019-01-27T23:14:52.728Z,6.02
2019-01-27T23:17:23.833Z,6.26
2019-01-27T23:19:55.356Z,6.09
2019-01-27T23:22:26.870Z,6.01
2019-01-27T23:24:58.084Z,6.04
2019-01-27T23:27:29.082Z,6.05
2019-01-27T23:30:00.035Z,5.93
2019-01-27T23:32:31.049Z,6.14
2019-01-27T23:35:02.130Z,6.02
2019-01-27T23:37:33.531Z,6.15
2019-01-27T23:40:05.551Z,6.13
2019-01-27T23:42:37.594Z,6.18
2019-01-27T23:45:09.990Z,6.14
2019-01-27T23:47:40.992Z,6.18
2019-01-27T23:50:12.614Z,6.19
2019-01-27T23:52:43.680Z,6.28
2019-01-27T23:55:14.781Z,6.31
2019-01-27T23:57:45.921Z,6.10
